sensor_id;sensor_type;location;lat;lon;timestamp;P1;durP1;ratioP1;P2;durP2;ratioP2
70303;SDS011;57712;48.752;11.348;2023-06-26T00:00:50;9.80;;;5.65;;
70303;SDS011;57712;48.752;11.348;2023-06-26T00:04:15;11.45;;;5.85;;
70303;SDS011;57712;48.752;11.348;2023-06-26T00:07:41;10.30;;;5.90;;
70303;SDS011;57712;48.752;11.348;2023-06-26T00:11:06;10.83;;;6.10;;
70303;SDS011;57712;48.752;11.348;2023-06-26T00:14:32;11.93;;;6.25;;
70303;SDS011;57712;48.752;11.348;2023-06-26T00:17:58;10.07;;;6.80;;
70303;SDS011;57712;48.752;11.348;2023-06-26T00:21:29;9.95;;;6.00;;
70303;SDS011;57712;48.752;11.348;2023-06-26T00:24:57;9.90;;;6.03;;
70303;SDS011;57712;48.752;11.348;2023-06-26T00:28:23;10.10;;;6.20;;
70303;SDS011;57712;48.752;11.348;2023-06-26T00:31:48;9.98;;;6.03;;
70303;SDS011;57712;48.752;11.348;2023-06-26T00:35:14;10.00;;;5.95;;
70303;SDS011;57712;48.752;11.348;2023-06-26T00:38:39;9.85;;;5.88;;
70303;SDS011;57712;48.752;11.348;2023-06-26T00:42:04;10.20;;;6.05;;
70303;SDS011;57712;48.752;11.348;2023-06-26T00:45:30;9.83;;;5.87;;
70303;SDS011;57712;48.752;11.348;2023-06-26T00:48:55;10.57;;;6.38;;
70303;SDS011;57712;48.752;11.348;2023-06-26T00:52:23;9.90;;;6.18;;
70303;SDS011;57712;48.752;11.348;2023-06-26T00:55:54;9.73;;;5.63;;
70303;SDS011;57712;48.752;11.348;2023-06-26T00:59:19;10.95;;;6.55;;
70303;SDS011;57712;48.752;11.348;2023-06-26T01:02:49;14.33;;;6.60;;
70303;SDS011;57712;48.752;11.348;2023-06-26T01:06:20;11.57;;;6.00;;
70303;SDS011;57712;48.752;11.348;2023-06-26T01:09:47;14.50;;;6.80;;
70303;SDS011;57712;48.752;11.348;2023-06-26T01:13:15;16.08;;;6.47;;
70303;SDS011;57712;48.752;11.348;2023-06-26T01:16:41;10.60;;;6.15;;
70303;SDS011;57712;48.752;11.348;2023-06-26T01:20:06;11.17;;;5.90;;
70303;SDS011;57712;48.752;11.348;2023-06-26T01:23:42;11.55;;;6.60;;
70303;SDS011;57712;48.752;11.348;2023-06-26T01:27:21;9.93;;;6.22;;
70303;SDS011;57712;48.752;11.348;2023-06-26T01:30:48;9.82;;;6.00;;
70303;SDS011;57712;48.752;11.348;2023-06-26T01:34:16;10.30;;;6.10;;
70303;SDS011;57712;48.752;11.348;2023-06-26T01:37:48;11.37;;;5.73;;
70303;SDS011;57712;48.752;11.348;2023-06-26T01:41:13;9.35;;;5.78;;
70303;SDS011;57712;48.752;11.348;2023-06-26T01:44:44;11.02;;;6.30;;
70303;SDS011;57712;48.752;11.348;2023-06-26T01:48:13;10.60;;;6.20;;
70303;SDS011;57712;48.752;11.348;2023-06-26T01:51:52;9.95;;;6.22;;
70303;SDS011;57712;48.752;11.348;2023-06-26T01:55:36;10.00;;;6.13;;
70303;SDS011;57712;48.752;11.348;2023-06-26T01:59:05;11.52;;;6.10;;
70303;SDS011;57712;48.752;11.348;2023-06-26T02:02:33;10.57;;;6.22;;
70303;SDS011;57712;48.752;11.348;2023-06-26T02:05:59;10.05;;;6.00;;
70303;SDS011;57712;48.752;11.348;2023-06-26T02:09:26;10.30;;;6.15;;
70303;SDS011;57712;48.752;11.348;2023-06-26T02:12:51;9.63;;;5.87;;
70303;SDS011;57712;48.752;11.348;2023-06-26T02:16:16;10.35;;;5.63;;
70303;SDS011;57712;48.752;11.348;2023-06-26T02:19:43;10.63;;;6.30;;
70303;SDS011;57712;48.752;11.348;2023-06-26T02:23:10;10.27;;;6.38;;
70303;SDS011;57712;48.752;11.348;2023-06-26T02:26:37;10.18;;;6.25;;
70303;SDS011;57712;48.752;11.348;2023-06-26T02:30:02;10.80;;;6.27;;
70303;SDS011;57712;48.752;11.348;2023-06-26T02:33:27;10.52;;;6.07;;
70303;SDS011;57712;48.752;11.348;2023-06-26T02:36:56;10.23;;;5.63;;
70303;SDS011;57712;48.752;11.348;2023-06-26T02:40:22;10.57;;;6.47;;
70303;SDS011;57712;48.752;11.348;2023-06-26T02:43:47;11.60;;;6.30;;
70303;SDS011;57712;48.752;11.348;2023-06-26T02:47:14;10.97;;;6.53;;
70303;SDS011;57712;48.752;11.348;2023-06-26T02:50:39;9.30;;;5.93;;
70303;SDS011;57712;48.752;11.348;2023-06-26T02:54:04;10.10;;;6.05;;
70303;SDS011;57712;48.752;11.348;2023-06-26T02:57:31;9.23;;;5.68;;
70303;SDS011;57712;48.752;11.348;2023-06-26T03:00:56;9.77;;;6.20;;
70303;SDS011;57712;48.752;11.348;2023-06-26T03:04:23;11.00;;;6.80;;
70303;SDS011;57712;48.752;11.348;2023-06-26T03:07:51;10.40;;;6.75;;
70303;SDS011;57712;48.752;11.348;2023-06-26T03:11:16;10.18;;;6.40;;
70303;SDS011;57712;48.752;11.348;2023-06-26T03:14:46;10.55;;;6.40;;
70303;SDS011;57712;48.752;11.348;2023-06-26T03:18:16;12.88;;;7.35;;
70303;SDS011;57712;48.752;11.348;2023-06-26T03:21:41;12.17;;;6.20;;
70303;SDS011;57712;48.752;11.348;2023-06-26T03:25:06;11.75;;;6.18;;
70303;SDS011;57712;48.752;11.348;2023-06-26T03:28:31;10.57;;;7.13;;
70303;SDS011;57712;48.752;11.348;2023-06-26T03:32:03;10.25;;;6.43;;
70303;SDS011;57712;48.752;11.348;2023-06-26T03:35:29;10.02;;;6.30;;
70303;SDS011;57712;48.752;11.348;2023-06-26T03:38:54;11.87;;;6.17;;
70303;SDS011;57712;48.752;11.348;2023-06-26T03:42:19;11.48;;;7.15;;
70303;SDS011;57712;48.752;11.348;2023-06-26T03:45:45;10.93;;;6.22;;
70303;SDS011;57712;48.752;11.348;2023-06-26T03:49:10;11.98;;;7.40;;
70303;SDS011;57712;48.752;11.348;2023-06-26T03:52:35;14.88;;;6.72;;
70303;SDS011;57712;48.752;11.348;2023-06-26T03:56:05;10.87;;;6.40;;
70303;SDS011;57712;48.752;11.348;2023-06-26T03:59:30;10.90;;;6.70;;
70303;SDS011;57712;48.752;11.348;2023-06-26T04:02:55;11.63;;;6.60;;
70303;SDS011;57712;48.752;11.348;2023-06-26T04:06:22;12.65;;;6.70;;
70303;SDS011;57712;48.752;11.348;2023-06-26T04:09:47;12.20;;;6.40;;
70303;SDS011;57712;48.752;11.348;2023-06-26T04:13:14;10.50;;;6.20;;
70303;SDS011;57712;48.752;11.348;2023-06-26T04:16:39;10.60;;;6.35;;
70303;SDS011;57712;48.752;11.348;2023-06-26T04:20:06;12.52;;;6.22;;
70303;SDS011;57712;48.752;11.348;2023-06-26T04:23:34;10.73;;;6.63;;
70303;SDS011;57712;48.752;11.348;2023-06-26T04:27:00;9.35;;;6.00;;
70303;SDS011;57712;48.752;11.348;2023-06-26T04:30:27;9.47;;;6.00;;
70303;SDS011;57712;48.752;11.348;2023-06-26T04:33:52;10.40;;;7.18;;
70303;SDS011;57712;48.752;11.348;2023-06-26T04:37:18;11.30;;;7.05;;
70303;SDS011;57712;48.752;11.348;2023-06-26T04:40:43;11.82;;;7.05;;
70303;SDS011;57712;48.752;11.348;2023-06-26T04:44:09;12.05;;;7.30;;
70303;SDS011;57712;48.752;11.348;2023-06-26T04:47:36;10.77;;;6.33;;
70303;SDS011;57712;48.752;11.348;2023-06-26T04:51:02;10.20;;;6.63;;
70303;SDS011;57712;48.752;11.348;2023-06-26T04:54:27;10.07;;;6.22;;
70303;SDS011;57712;48.752;11.348;2023-06-26T04:57:57;11.15;;;6.35;;
70303;SDS011;57712;48.752;11.348;2023-06-26T05:01:22;9.82;;;6.63;;
70303;SDS011;57712;48.752;11.348;2023-06-26T05:04:48;9.57;;;6.00;;
70303;SDS011;57712;48.752;11.348;2023-06-26T05:08:14;10.57;;;6.30;;
70303;SDS011;57712;48.752;11.348;2023-06-26T05:11:40;11.45;;;7.38;;
70303;SDS011;57712;48.752;11.348;2023-06-26T05:15:10;12.15;;;6.53;;
70303;SDS011;57712;48.752;11.348;2023-06-26T05:18:36;11.00;;;7.00;;
70303;SDS011;57712;48.752;11.348;2023-06-26T05:22:02;12.77;;;7.17;;
70303;SDS011;57712;48.752;11.348;2023-06-26T05:25:31;11.45;;;6.88;;
70303;SDS011;57712;48.752;11.348;2023-06-26T05:28:57;10.68;;;6.72;;
70303;SDS011;57712;48.752;11.348;2023-06-26T05:32:22;10.68;;;7.20;;
70303;SDS011;57712;48.752;11.348;2023-06-26T05:35:53;11.23;;;6.80;;
70303;SDS011;57712;48.752;11.348;2023-06-26T05:39:23;11.10;;;7.77;;
70303;SDS011;57712;48.752;11.348;2023-06-26T05:42:53;11.73;;;7.53;;
70303;SDS011;57712;48.752;11.348;2023-06-26T05:46:20;11.88;;;7.57;;
70303;SDS011;57712;48.752;11.348;2023-06-26T05:49:46;11.70;;;7.18;;
70303;SDS011;57712;48.752;11.348;2023-06-26T05:53:11;12.38;;;7.80;;
70303;SDS011;57712;48.752;11.348;2023-06-26T05:56:39;12.37;;;8.60;;
70303;SDS011;57712;48.752;11.348;2023-06-26T06:00:10;13.13;;;8.88;;
70303;SDS011;57712;48.752;11.348;2023-06-26T06:03:35;13.10;;;8.57;;
70303;SDS011;57712;48.752;11.348;2023-06-26T06:07:02;12.65;;;8.85;;
70303;SDS011;57712;48.752;11.348;2023-06-26T06:10:32;13.45;;;8.98;;
70303;SDS011;57712;48.752;11.348;2023-06-26T06:13:58;12.03;;;8.80;;
70303;SDS011;57712;48.752;11.348;2023-06-26T06:17:23;12.63;;;8.90;;
70303;SDS011;57712;48.752;11.348;2023-06-26T06:20:48;11.88;;;8.50;;
70303;SDS011;57712;48.752;11.348;2023-06-26T06:24:13;12.63;;;8.20;;
70303;SDS011;57712;48.752;11.348;2023-06-26T06:27:39;11.68;;;8.20;;
70303;SDS011;57712;48.752;11.348;2023-06-26T06:31:05;11.13;;;7.87;;
70303;SDS011;57712;48.752;11.348;2023-06-26T06:34:35;12.30;;;8.55;;
70303;SDS011;57712;48.752;11.348;2023-06-26T06:38:00;10.93;;;8.10;;
70303;SDS011;57712;48.752;11.348;2023-06-26T06:41:26;11.20;;;7.97;;
70303;SDS011;57712;48.752;11.348;2023-06-26T06:44:51;11.43;;;7.88;;
70303;SDS011;57712;48.752;11.348;2023-06-26T06:48:16;11.70;;;8.10;;
70303;SDS011;57712;48.752;11.348;2023-06-26T06:51:41;11.35;;;8.20;;
70303;SDS011;57712;48.752;11.348;2023-06-26T06:55:08;12.85;;;8.35;;
70303;SDS011;57712;48.752;11.348;2023-06-26T06:58:33;12.05;;;8.50;;
70303;SDS011;57712;48.752;11.348;2023-06-26T07:01:59;12.02;;;8.50;;
70303;SDS011;57712;48.752;11.348;2023-06-26T07:05:24;11.93;;;8.60;;
70303;SDS011;57712;48.752;11.348;2023-06-26T07:08:50;14.50;;;7.95;;
70303;SDS011;57712;48.752;11.348;2023-06-26T07:12:17;14.48;;;9.55;;
70303;SDS011;57712;48.752;11.348;2023-06-26T07:15:42;12.70;;;9.13;;
70303;SDS011;57712;48.752;11.348;2023-06-26T07:19:07;15.57;;;8.90;;
70303;SDS011;57712;48.752;11.348;2023-06-26T07:22:34;13.40;;;8.37;;
70303;SDS011;57712;48.752;11.348;2023-06-26T07:25:59;11.73;;;8.25;;
70303;SDS011;57712;48.752;11.348;2023-06-26T07:29:27;15.15;;;8.90;;
70303;SDS011;57712;48.752;11.348;2023-06-26T07:32:53;13.07;;;8.70;;
70303;SDS011;57712;48.752;11.348;2023-06-26T07:36:19;12.15;;;7.75;;
70303;SDS011;57712;48.752;11.348;2023-06-26T07:39:45;12.80;;;8.90;;
70303;SDS011;57712;48.752;11.348;2023-06-26T07:43:10;13.82;;;8.90;;
70303;SDS011;57712;48.752;11.348;2023-06-26T07:46:36;11.27;;;8.35;;
70303;SDS011;57712;48.752;11.348;2023-06-26T07:50:01;11.60;;;8.20;;
70303;SDS011;57712;48.752;11.348;2023-06-26T07:53:26;12.00;;;8.32;;
70303;SDS011;57712;48.752;11.348;2023-06-26T07:56:55;13.00;;;8.60;;
70303;SDS011;57712;48.752;11.348;2023-06-26T08:00:21;12.35;;;8.80;;
70303;SDS011;57712;48.752;11.348;2023-06-26T08:03:51;13.23;;;9.00;;
70303;SDS011;57712;48.752;11.348;2023-06-26T08:07:17;11.57;;;8.00;;
70303;SDS011;57712;48.752;11.348;2023-06-26T08:10:48;11.95;;;8.75;;
70303;SDS011;57712;48.752;11.348;2023-06-26T08:14:16;15.47;;;8.70;;
70303;SDS011;57712;48.752;11.348;2023-06-26T08:17:41;12.55;;;8.85;;
70303;SDS011;57712;48.752;11.348;2023-06-26T08:21:06;11.50;;;8.73;;
70303;SDS011;57712;48.752;11.348;2023-06-26T08:24:32;12.07;;;8.75;;
70303;SDS011;57712;48.752;11.348;2023-06-26T08:28:01;10.90;;;8.20;;
70303;SDS011;57712;48.752;11.348;2023-06-26T08:31:26;11.67;;;8.20;;
70303;SDS011;57712;48.752;11.348;2023-06-26T08:34:55;11.85;;;8.90;;
70303;SDS011;57712;48.752;11.348;2023-06-26T08:38:20;12.32;;;9.52;;
70303;SDS011;57712;48.752;11.348;2023-06-26T08:41:45;13.75;;;9.15;;
70303;SDS011;57712;48.752;11.348;2023-06-26T08:45:16;13.07;;;9.10;;
70303;SDS011;57712;48.752;11.348;2023-06-26T08:48:54;13.33;;;8.37;;
70303;SDS011;57712;48.752;11.348;2023-06-26T08:52:36;11.73;;;8.48;;
70303;SDS011;57712;48.752;11.348;2023-06-26T08:56:22;11.98;;;8.50;;
70303;SDS011;57712;48.752;11.348;2023-06-26T08:59:51;10.57;;;7.97;;
70303;SDS011;57712;48.752;11.348;2023-06-26T09:03:17;11.60;;;8.88;;
70303;SDS011;57712;48.752;11.348;2023-06-26T09:06:43;10.97;;;8.00;;
70303;SDS011;57712;48.752;11.348;2023-06-26T09:10:09;13.10;;;8.43;;
70303;SDS011;57712;48.752;11.348;2023-06-26T09:13:35;12.50;;;8.13;;
70303;SDS011;57712;48.752;11.348;2023-06-26T09:17:00;11.23;;;7.68;;
70303;SDS011;57712;48.752;11.348;2023-06-26T09:20:27;12.55;;;8.38;;
70303;SDS011;57712;48.752;11.348;2023-06-26T09:23:55;12.70;;;7.27;;
70303;SDS011;57712;48.752;11.348;2023-06-26T09:27:21;23.48;;;11.60;;
70303;SDS011;57712;48.752;11.348;2023-06-26T09:30:51;15.27;;;8.30;;
70303;SDS011;57712;48.752;11.348;2023-06-26T09:34:18;11.05;;;7.93;;
70303;SDS011;57712;48.752;11.348;2023-06-26T09:37:43;11.00;;;7.05;;
70303;SDS011;57712;48.752;11.348;2023-06-26T09:41:09;10.50;;;7.70;;
70303;SDS011;57712;48.752;11.348;2023-06-26T09:44:34;13.05;;;8.20;;
70303;SDS011;57712;48.752;11.348;2023-06-26T09:48:00;11.00;;;8.27;;
70303;SDS011;57712;48.752;11.348;2023-06-26T09:51:39;11.68;;;7.18;;
70303;SDS011;57712;48.752;11.348;2023-06-26T09:55:08;11.38;;;7.82;;
70303;SDS011;57712;48.752;11.348;2023-06-26T09:58:33;12.23;;;7.60;;
70303;SDS011;57712;48.752;11.348;2023-06-26T10:02:00;9.45;;;6.97;;
70303;SDS011;57712;48.752;11.348;2023-06-26T10:05:27;13.38;;;8.38;;
70303;SDS011;57712;48.752;11.348;2023-06-26T10:08:56;10.48;;;7.47;;
70303;SDS011;57712;48.752;11.348;2023-06-26T10:12:26;9.80;;;7.15;;
70303;SDS011;57712;48.752;11.348;2023-06-26T10:16:01;9.77;;;6.90;;
70303;SDS011;57712;48.752;11.348;2023-06-26T10:19:27;9.60;;;6.50;;
70303;SDS011;57712;48.752;11.348;2023-06-26T10:22:53;9.60;;;6.85;;
70303;SDS011;57712;48.752;11.348;2023-06-26T10:26:24;10.63;;;7.38;;
70303;SDS011;57712;48.752;11.348;2023-06-26T10:29:58;8.70;;;7.00;;
70303;SDS011;57712;48.752;11.348;2023-06-26T10:33:26;9.87;;;6.83;;
70303;SDS011;57712;48.752;11.348;2023-06-26T10:36:59;9.52;;;6.53;;
70303;SDS011;57712;48.752;11.348;2023-06-26T10:40:44;9.57;;;6.85;;
70303;SDS011;57712;48.752;11.348;2023-06-26T10:44:26;9.85;;;6.85;;
70303;SDS011;57712;48.752;11.348;2023-06-26T10:47:55;8.23;;;5.80;;
70303;SDS011;57712;48.752;11.348;2023-06-26T10:51:24;8.10;;;5.43;;
70303;SDS011;57712;48.752;11.348;2023-06-26T10:54:54;8.00;;;5.72;;
70303;SDS011;57712;48.752;11.348;2023-06-26T11:02:01;8.25;;;5.60;;
70303;SDS011;57712;48.752;11.348;2023-06-26T11:05:28;7.80;;;6.05;;
70303;SDS011;57712;48.752;11.348;2023-06-26T11:12:38;9.27;;;5.80;;
70303;SDS011;57712;48.752;11.348;2023-06-26T11:16:03;9.20;;;6.47;;
70303;SDS011;57712;48.752;11.348;2023-06-26T11:19:30;8.45;;;5.63;;
70303;SDS011;57712;48.752;11.348;2023-06-26T11:22:55;11.18;;;7.90;;
70303;SDS011;57712;48.752;11.348;2023-06-26T11:26:29;8.67;;;6.63;;
70303;SDS011;57712;48.752;11.348;2023-06-26T11:30:25;10.82;;;7.18;;
70303;SDS011;57712;48.752;11.348;2023-06-26T11:34:01;8.93;;;7.07;;
70303;SDS011;57712;48.752;11.348;2023-06-26T11:37:27;9.98;;;6.40;;
70303;SDS011;57712;48.752;11.348;2023-06-26T11:40:52;9.77;;;6.72;;
70303;SDS011;57712;48.752;11.348;2023-06-26T11:44:17;9.13;;;6.90;;
70303;SDS011;57712;48.752;11.348;2023-06-26T11:47:43;10.20;;;6.53;;
70303;SDS011;57712;48.752;11.348;2023-06-26T11:51:08;9.73;;;6.60;;
70303;SDS011;57712;48.752;11.348;2023-06-26T11:54:34;10.57;;;6.82;;
70303;SDS011;57712;48.752;11.348;2023-06-26T11:58:06;10.23;;;6.95;;
70303;SDS011;57712;48.752;11.348;2023-06-26T12:01:43;9.17;;;6.83;;
70303;SDS011;57712;48.752;11.348;2023-06-26T12:05:11;10.40;;;6.93;;
70303;SDS011;57712;48.752;11.348;2023-06-26T12:08:36;9.75;;;7.68;;
70303;SDS011;57712;48.752;11.348;2023-06-26T12:12:25;8.60;;;6.93;;
70303;SDS011;57712;48.752;11.348;2023-06-26T12:15:50;9.05;;;7.32;;
70303;SDS011;57712;48.752;11.348;2023-06-26T12:19:23;8.87;;;6.80;;
70303;SDS011;57712;48.752;11.348;2023-06-26T12:22:50;10.73;;;7.55;;
70303;SDS011;57712;48.752;11.348;2023-06-26T12:26:16;10.13;;;7.32;;
70303;SDS011;57712;48.752;11.348;2023-06-26T12:30:03;9.80;;;7.15;;
70303;SDS011;57712;48.752;11.348;2023-06-26T12:33:50;9.40;;;6.88;;
70303;SDS011;57712;48.752;11.348;2023-06-26T12:37:17;9.57;;;7.40;;
70303;SDS011;57712;48.752;11.348;2023-06-26T12:40:46;9.65;;;6.28;;
70303;SDS011;57712;48.752;11.348;2023-06-26T12:44:17;9.20;;;6.93;;
70303;SDS011;57712;48.752;11.348;2023-06-26T12:48:15;9.98;;;7.03;;
70303;SDS011;57712;48.752;11.348;2023-06-26T12:51:56;8.40;;;6.53;;
70303;SDS011;57712;48.752;11.348;2023-06-26T12:55:25;9.27;;;7.13;;
70303;SDS011;57712;48.752;11.348;2023-06-26T12:58:50;8.95;;;6.50;;
70303;SDS011;57712;48.752;11.348;2023-06-26T13:02:15;8.93;;;6.15;;
70303;SDS011;57712;48.752;11.348;2023-06-26T13:05:44;8.55;;;5.97;;
70303;SDS011;57712;48.752;11.348;2023-06-26T13:09:09;8.10;;;6.20;;
70303;SDS011;57712;48.752;11.348;2023-06-26T13:12:35;9.30;;;6.00;;
70303;SDS011;57712;48.752;11.348;2023-06-26T13:16:00;7.40;;;5.20;;
70303;SDS011;57712;48.752;11.348;2023-06-26T13:19:35;8.05;;;6.18;;
70303;SDS011;57712;48.752;11.348;2023-06-26T13:23:00;8.32;;;6.35;;
70303;SDS011;57712;48.752;11.348;2023-06-26T13:26:25;8.75;;;6.10;;
70303;SDS011;57712;48.752;11.348;2023-06-26T13:29:51;9.10;;;6.00;;
70303;SDS011;57712;48.752;11.348;2023-06-26T13:33:18;7.43;;;5.30;;
70303;SDS011;57712;48.752;11.348;2023-06-26T13:36:50;8.48;;;6.38;;
70303;SDS011;57712;48.752;11.348;2023-06-26T13:40:19;8.32;;;5.70;;
70303;SDS011;57712;48.752;11.348;2023-06-26T13:43:46;8.13;;;5.78;;
70303;SDS011;57712;48.752;11.348;2023-06-26T13:47:28;8.07;;;5.40;;
70303;SDS011;57712;48.752;11.348;2023-06-26T13:50:53;8.35;;;6.65;;
70303;SDS011;57712;48.752;11.348;2023-06-26T13:54:18;7.70;;;5.85;;
70303;SDS011;57712;48.752;11.348;2023-06-26T13:57:43;7.53;;;5.68;;
70303;SDS011;57712;48.752;11.348;2023-06-26T14:01:09;7.95;;;5.80;;
70303;SDS011;57712;48.752;11.348;2023-06-26T14:04:35;8.70;;;5.50;;
70303;SDS011;57712;48.752;11.348;2023-06-26T14:08:03;8.02;;;6.40;;
70303;SDS011;57712;48.752;11.348;2023-06-26T14:11:30;8.82;;;6.55;;
70303;SDS011;57712;48.752;11.348;2023-06-26T14:14:55;7.13;;;5.70;;
70303;SDS011;57712;48.752;11.348;2023-06-26T14:18:26;9.98;;;5.50;;
70303;SDS011;57712;48.752;11.348;2023-06-26T14:21:52;9.13;;;5.90;;
70303;SDS011;57712;48.752;11.348;2023-06-26T14:25:19;7.40;;;6.03;;
70303;SDS011;57712;48.752;11.348;2023-06-26T14:28:49;8.82;;;6.38;;
70303;SDS011;57712;48.752;11.348;2023-06-26T14:32:17;8.45;;;6.30;;
70303;SDS011;57712;48.752;11.348;2023-06-26T14:35:47;8.55;;;6.90;;
70303;SDS011;57712;48.752;11.348;2023-06-26T14:39:17;8.13;;;6.47;;
70303;SDS011;57712;48.752;11.348;2023-06-26T14:42:43;7.95;;;5.60;;
70303;SDS011;57712;48.752;11.348;2023-06-26T14:46:13;10.10;;;6.50;;
70303;SDS011;57712;48.752;11.348;2023-06-26T14:49:40;10.02;;;6.28;;
70303;SDS011;57712;48.752;11.348;2023-06-26T14:53:05;9.27;;;6.78;;
70303;SDS011;57712;48.752;11.348;2023-06-26T14:56:31;8.20;;;5.70;;
70303;SDS011;57712;48.752;11.348;2023-06-26T15:00:02;9.27;;;6.22;;
70303;SDS011;57712;48.752;11.348;2023-06-26T15:03:35;8.88;;;6.90;;
70303;SDS011;57712;48.752;11.348;2023-06-26T15:07:02;8.80;;;6.10;;
70303;SDS011;57712;48.752;11.348;2023-06-26T15:10:32;9.48;;;6.18;;
70303;SDS011;57712;48.752;11.348;2023-06-26T15:13:58;9.30;;;6.73;;
70303;SDS011;57712;48.752;11.348;2023-06-26T15:17:25;9.93;;;6.72;;
70303;SDS011;57712;48.752;11.348;2023-06-26T15:20:50;8.82;;;6.20;;
70303;SDS011;57712;48.752;11.348;2023-06-26T15:24:15;9.35;;;7.18;;
70303;SDS011;57712;48.752;11.348;2023-06-26T15:27:40;9.48;;;6.63;;
70303;SDS011;57712;48.752;11.348;2023-06-26T15:31:10;9.77;;;6.87;;
70303;SDS011;57712;48.752;11.348;2023-06-26T15:34:38;10.00;;;6.32;;
70303;SDS011;57712;48.752;11.348;2023-06-26T15:38:07;10.07;;;7.05;;
70303;SDS011;57712;48.752;11.348;2023-06-26T15:41:33;9.13;;;6.70;;
70303;SDS011;57712;48.752;11.348;2023-06-26T15:44:58;9.48;;;7.07;;
70303;SDS011;57712;48.752;11.348;2023-06-26T15:48:25;11.13;;;7.53;;
70303;SDS011;57712;48.752;11.348;2023-06-26T15:51:54;10.63;;;7.03;;
70303;SDS011;57712;48.752;11.348;2023-06-26T15:55:20;11.73;;;8.20;;
70303;SDS011;57712;48.752;11.348;2023-06-26T15:58:49;8.40;;;6.47;;
70303;SDS011;57712;48.752;11.348;2023-06-26T16:02:15;8.63;;;6.55;;
70303;SDS011;57712;48.752;11.348;2023-06-26T16:05:41;7.63;;;6.20;;
70303;SDS011;57712;48.752;11.348;2023-06-26T16:09:06;8.85;;;6.68;;
70303;SDS011;57712;48.752;11.348;2023-06-26T16:12:32;9.90;;;7.28;;
70303;SDS011;57712;48.752;11.348;2023-06-26T16:15:57;10.55;;;6.90;;
70303;SDS011;57712;48.752;11.348;2023-06-26T16:19:23;11.93;;;8.77;;
70303;SDS011;57712;48.752;11.348;2023-06-26T16:22:54;10.30;;;8.03;;
70303;SDS011;57712;48.752;11.348;2023-06-26T16:26:21;14.80;;;10.95;;
70303;SDS011;57712;48.752;11.348;2023-06-26T16:29:46;11.68;;;7.25;;
70303;SDS011;57712;48.752;11.348;2023-06-26T16:33:13;9.98;;;7.07;;
70303;SDS011;57712;48.752;11.348;2023-06-26T16:36:38;11.43;;;8.60;;
70303;SDS011;57712;48.752;11.348;2023-06-26T16:40:04;11.10;;;6.63;;
70303;SDS011;57712;48.752;11.348;2023-06-26T16:43:30;9.05;;;6.90;;
70303;SDS011;57712;48.752;11.348;2023-06-26T16:46:56;9.77;;;6.80;;
70303;SDS011;57712;48.752;11.348;2023-06-26T16:50:26;10.02;;;7.78;;
70303;SDS011;57712;48.752;11.348;2023-06-26T16:53:53;9.65;;;6.88;;
70303;SDS011;57712;48.752;11.348;2023-06-26T16:57:18;10.60;;;6.73;;
70303;SDS011;57712;48.752;11.348;2023-06-26T17:00:49;11.80;;;7.57;;
70303;SDS011;57712;48.752;11.348;2023-06-26T17:04:22;12.10;;;7.82;;
70303;SDS011;57712;48.752;11.348;2023-06-26T17:07:48;11.23;;;6.88;;
70303;SDS011;57712;48.752;11.348;2023-06-26T17:11:18;10.80;;;6.68;;
70303;SDS011;57712;48.752;11.348;2023-06-26T17:14:44;15.80;;;5.93;;
70303;SDS011;57712;48.752;11.348;2023-06-26T17:18:10;11.05;;;7.13;;
70303;SDS011;57712;48.752;11.348;2023-06-26T17:21:35;11.20;;;7.65;;
70303;SDS011;57712;48.752;11.348;2023-06-26T17:25:06;10.70;;;7.25;;
70303;SDS011;57712;48.752;11.348;2023-06-26T17:28:40;12.48;;;7.00;;
70303;SDS011;57712;48.752;11.348;2023-06-26T17:32:07;10.67;;;7.37;;
70303;SDS011;57712;48.752;11.348;2023-06-26T17:35:39;10.45;;;7.10;;
70303;SDS011;57712;48.752;11.348;2023-06-26T17:39:09;9.40;;;5.75;;
70303;SDS011;57712;48.752;11.348;2023-06-26T17:42:36;8.35;;;5.60;;
70303;SDS011;57712;48.752;11.348;2023-06-26T17:46:02;12.90;;;6.07;;
70303;SDS011;57712;48.752;11.348;2023-06-26T17:49:29;8.93;;;5.47;;
70303;SDS011;57712;48.752;11.348;2023-06-26T17:52:56;10.45;;;5.35;;
70303;SDS011;57712;48.752;11.348;2023-06-26T17:56:30;8.25;;;5.50;;
70303;SDS011;57712;48.752;11.348;2023-06-26T17:59:55;9.85;;;4.72;;
70303;SDS011;57712;48.752;11.348;2023-06-26T18:03:21;7.70;;;5.05;;
70303;SDS011;57712;48.752;11.348;2023-06-26T18:06:46;7.33;;;4.57;;
70303;SDS011;57712;48.752;11.348;2023-06-26T18:10:28;8.20;;;5.03;;
70303;SDS011;57712;48.752;11.348;2023-06-26T18:13:58;8.57;;;4.90;;
70303;SDS011;57712;48.752;11.348;2023-06-26T18:17:27;7.15;;;4.45;;
70303;SDS011;57712;48.752;11.348;2023-06-26T18:20:58;8.15;;;3.97;;
70303;SDS011;57712;48.752;11.348;2023-06-26T18:24:23;7.00;;;3.60;;
70303;SDS011;57712;48.752;11.348;2023-06-26T18:27:51;6.57;;;3.15;;
70303;SDS011;57712;48.752;11.348;2023-06-26T18:31:19;5.95;;;3.45;;
70303;SDS011;57712;48.752;11.348;2023-06-26T18:34:46;7.40;;;3.20;;
70303;SDS011;57712;48.752;11.348;2023-06-26T18:38:16;7.30;;;3.55;;
70303;SDS011;57712;48.752;11.348;2023-06-26T18:41:42;6.63;;;3.20;;
70303;SDS011;57712;48.752;11.348;2023-06-26T18:45:08;8.73;;;3.53;;
70303;SDS011;57712;48.752;11.348;2023-06-26T18:48:41;6.97;;;3.70;;
70303;SDS011;57712;48.752;11.348;2023-06-26T18:52:16;6.97;;;3.17;;
70303;SDS011;57712;48.752;11.348;2023-06-26T18:55:42;6.50;;;3.72;;
70303;SDS011;57712;48.752;11.348;2023-06-26T18:59:10;6.37;;;3.37;;
70303;SDS011;57712;48.752;11.348;2023-06-26T19:02:39;11.23;;;4.55;;
70303;SDS011;57712;48.752;11.348;2023-06-26T19:06:04;8.43;;;5.13;;
70303;SDS011;57712;48.752;11.348;2023-06-26T19:09:31;10.10;;;5.22;;
70303;SDS011;57712;48.752;11.348;2023-06-26T19:13:01;10.50;;;4.43;;
70303;SDS011;57712;48.752;11.348;2023-06-26T19:16:27;7.43;;;4.83;;
70303;SDS011;57712;48.752;11.348;2023-06-26T19:19:55;8.55;;;4.70;;
70303;SDS011;57712;48.752;11.348;2023-06-26T19:23:20;10.60;;;5.40;;
70303;SDS011;57712;48.752;11.348;2023-06-26T19:26:45;8.55;;;5.07;;
70303;SDS011;57712;48.752;11.348;2023-06-26T19:30:12;9.65;;;5.70;;
70303;SDS011;57712;48.752;11.348;2023-06-26T19:33:41;9.10;;;5.87;;
70303;SDS011;57712;48.752;11.348;2023-06-26T19:37:07;8.65;;;5.05;;
70303;SDS011;57712;48.752;11.348;2023-06-26T19:40:39;9.63;;;5.45;;
70303;SDS011;57712;48.752;11.348;2023-06-26T19:44:05;8.68;;;5.07;;
70303;SDS011;57712;48.752;11.348;2023-06-26T19:47:31;9.32;;;5.57;;
70303;SDS011;57712;48.752;11.348;2023-06-26T19:50:57;8.63;;;5.70;;
70303;SDS011;57712;48.752;11.348;2023-06-26T19:54:22;9.73;;;5.78;;
70303;SDS011;57712;48.752;11.348;2023-06-26T19:57:47;10.48;;;6.40;;
70303;SDS011;57712;48.752;11.348;2023-06-26T20:01:17;11.18;;;6.60;;
70303;SDS011;57712;48.752;11.348;2023-06-26T20:04:43;12.23;;;7.07;;
70303;SDS011;57712;48.752;11.348;2023-06-26T20:08:08;9.60;;;6.40;;
70303;SDS011;57712;48.752;11.348;2023-06-26T20:11:33;10.88;;;5.80;;
70303;SDS011;57712;48.752;11.348;2023-06-26T20:15:02;11.38;;;6.10;;
70303;SDS011;57712;48.752;11.348;2023-06-26T20:18:27;12.02;;;6.72;;
70303;SDS011;57712;48.752;11.348;2023-06-26T20:21:58;10.32;;;6.03;;
70303;SDS011;57712;48.752;11.348;2023-06-26T20:25:25;10.00;;;5.23;;
70303;SDS011;57712;48.752;11.348;2023-06-26T20:28:50;8.75;;;3.90;;